sensor_id;sensor_type;location;lat;lon;timestamp;temperature;humidity
44817;DHT22;30529;53.570;9.964;2023-02-28T00:01:26;5.10;99.90
44817;DHT22;30529;53.570;9.964;2023-02-28T00:03:52;5.10;99.90
44817;DHT22;30529;53.570;9.964;2023-02-28T00:06:19;5.00;99.90
44817;DHT22;30529;53.570;9.964;2023-02-28T00:08:45;5.00;99.90
44817;DHT22;30529;53.570;9.964;2023-02-28T00:11:13;4.90;99.90
44817;DHT22;30529;53.570;9.964;2023-02-28T00:13:44;4.80;99.90
44817;DHT22;30529;53.570;9.964;2023-02-28T00:16:19;4.70;99.90
44817;DHT22;30529;53.570;9.964;2023-02-28T00:18:45;4.60;99.90
44817;DHT22;30529;53.570;9.964;2023-02-28T00:21:14;4.50;99.90
44817;DHT22;30529;53.570;9.964;2023-02-28T00:23:40;4.50;99.90
44817;DHT22;30529;53.570;9.964;2023-02-28T00:26:06;4.50;99.90
44817;DHT22;30529;53.570;9.964;2023-02-28T00:28:32;4.60;99.90
44817;DHT22;30529;53.570;9.964;2023-02-28T00:30:58;4.60;99.90
44817;DHT22;30529;53.570;9.964;2023-02-28T00:33:26;4.70;99.90
44817;DHT22;30529;53.570;9.964;2023-02-28T00:36:07;4.70;99.90
44817;DHT22;30529;53.570;9.964;2023-02-28T00:38:34;4.60;99.90
44817;DHT22;30529;53.570;9.964;2023-02-28T00:41:00;4.60;99.90
44817;DHT22;30529;53.570;9.964;2023-02-28T00:43:34;4.60;99.90
44817;DHT22;30529;53.570;9.964;2023-02-28T00:46:01;4.60;99.90
44817;DHT22;30529;53.570;9.964;2023-02-28T00:48:28;4.60;99.90
44817;DHT22;30529;53.570;9.964;2023-02-28T00:50:54;4.60;99.90
44817;DHT22;30529;53.570;9.964;2023-02-28T00:53:20;4.60;99.90
44817;DHT22;30529;53.570;9.964;2023-02-28T00:55:49;4.60;99.90
44817;DHT22;30529;53.570;9.964;2023-02-28T00:58:15;4.60;99.90
44817;DHT22;30529;53.570;9.964;2023-02-28T01:00:41;4.50;99.90
44817;DHT22;30529;53.570;9.964;2023-02-28T01:03:07;4.50;99.90
44817;DHT22;30529;53.570;9.964;2023-02-28T01:05:33;4.60;99.90
44817;DHT22;30529;53.570;9.964;2023-02-28T01:08:03;4.60;99.90
44817;DHT22;30529;53.570;9.964;2023-02-28T01:10:29;4.60;99.90
44817;DHT22;30529;53.570;9.964;2023-02-28T01:12:57;4.70;99.90
44817;DHT22;30529;53.570;9.964;2023-02-28T01:15:23;4.60;99.90
44817;DHT22;30529;53.570;9.964;2023-02-28T01:17:49;4.60;99.90
44817;DHT22;30529;53.570;9.964;2023-02-28T01:20:15;4.60;99.90
44817;DHT22;30529;53.570;9.964;2023-02-28T01:22:41;4.50;99.90
44817;DHT22;30529;53.570;9.964;2023-02-28T01:25:08;4.50;99.90
44817;DHT22;30529;53.570;9.964;2023-02-28T01:27:33;4.50;99.90
44817;DHT22;30529;53.570;9.964;2023-02-28T01:29:59;4.50;99.90
44817;DHT22;30529;53.570;9.964;2023-02-28T01:32:25;4.50;99.90
44817;DHT22;30529;53.570;9.964;2023-02-28T01:34:51;4.50;99.90
44817;DHT22;30529;53.570;9.964;2023-02-28T01:37:17;4.50;99.90
44817;DHT22;30529;53.570;9.964;2023-02-28T01:39:43;4.50;99.90
44817;DHT22;30529;53.570;9.964;2023-02-28T01:42:10;4.50;99.90
44817;DHT22;30529;53.570;9.964;2023-02-28T01:44:57;4.50;99.90
44817;DHT22;30529;53.570;9.964;2023-02-28T01:47:32;4.60;99.90
44817;DHT22;30529;53.570;9.964;2023-02-28T01:49:58;4.60;99.90
44817;DHT22;30529;53.570;9.964;2023-02-28T01:52:27;4.60;99.90
44817;DHT22;30529;53.570;9.964;2023-02-28T01:54:55;4.60;99.90
44817;DHT22;30529;53.570;9.964;2023-02-28T01:57:27;4.60;99.90
44817;DHT22;30529;53.570;9.964;2023-02-28T01:59:57;4.60;99.90
44817;DHT22;30529;53.570;9.964;2023-02-28T02:02:25;4.60;99.90
44817;DHT22;30529;53.570;9.964;2023-02-28T02:04:56;4.60;99.90
44817;DHT22;30529;53.570;9.964;2023-02-28T02:07:25;4.60;99.90
44817;DHT22;30529;53.570;9.964;2023-02-28T02:10:06;4.70;99.90
44817;DHT22;30529;53.570;9.964;2023-02-28T02:15:15;4.60;99.90
44817;DHT22;30529;53.570;9.964;2023-02-28T02:17:48;4.60;99.90
44817;DHT22;30529;53.570;9.964;2023-02-28T02:26:47;4.60;99.90
44817;DHT22;30529;53.570;9.964;2023-02-28T02:29:41;4.50;99.90
44817;DHT22;30529;53.570;9.964;2023-02-28T02:34:55;4.50;99.90
44817;DHT22;30529;53.570;9.964;2023-02-28T02:42:36;4.30;99.90
44817;DHT22;30529;53.570;9.964;2023-02-28T02:45:19;4.30;99.90
44817;DHT22;30529;53.570;9.964;2023-02-28T02:47:49;4.20;99.90
44817;DHT22;30529;53.570;9.964;2023-02-28T02:50:22;4.10;99.90
44817;DHT22;30529;53.570;9.964;2023-02-28T02:52:53;3.90;99.90
44817;DHT22;30529;53.570;9.964;2023-02-28T02:55:22;3.80;99.90
44817;DHT22;30529;53.570;9.964;2023-02-28T02:57:53;3.70;99.90
44817;DHT22;30529;53.570;9.964;2023-02-28T03:00:25;3.60;99.90
44817;DHT22;30529;53.570;9.964;2023-02-28T03:02:53;3.50;99.90
44817;DHT22;30529;53.570;9.964;2023-02-28T03:05:25;3.40;99.90
44817;DHT22;30529;53.570;9.964;2023-02-28T03:07:52;3.30;99.90
44817;DHT22;30529;53.570;9.964;2023-02-28T03:10:37;3.30;99.90
44817;DHT22;30529;53.570;9.964;2023-02-28T03:13:33;3.20;99.90
44817;DHT22;30529;53.570;9.964;2023-02-28T03:19:26;3.10;99.90
44817;DHT22;30529;53.570;9.964;2023-02-28T03:24:57;3.10;99.90
44817;DHT22;30529;53.570;9.964;2023-02-28T03:30:27;3.10;99.90
44817;DHT22;30529;53.570;9.964;2023-02-28T03:33:01;3.10;99.90
44817;DHT22;30529;53.570;9.964;2023-02-28T03:35:39;3.00;99.90
44817;DHT22;30529;53.570;9.964;2023-02-28T03:38:18;3.00;99.90
44817;DHT22;30529;53.570;9.964;2023-02-28T03:40:52;2.90;99.90
44817;DHT22;30529;53.570;9.964;2023-02-28T03:43:29;2.80;99.90
44817;DHT22;30529;53.570;9.964;2023-02-28T03:46:00;2.80;99.90
44817;DHT22;30529;53.570;9.964;2023-02-28T03:48:32;2.70;99.90
44817;DHT22;30529;53.570;9.964;2023-02-28T03:51:02;2.70;99.90
44817;DHT22;30529;53.570;9.964;2023-02-28T03:53:36;2.70;99.90
44817;DHT22;30529;53.570;9.964;2023-02-28T03:56:18;2.70;99.90
44817;DHT22;30529;53.570;9.964;2023-02-28T03:58:59;2.60;99.90
44817;DHT22;30529;53.570;9.964;2023-02-28T04:01:39;2.60;99.90
44817;DHT22;30529;53.570;9.964;2023-02-28T04:04:08;2.50;99.90
44817;DHT22;30529;53.570;9.964;2023-02-28T04:06:34;2.50;99.90
44817;DHT22;30529;53.570;9.964;2023-02-28T04:09:02;2.50;99.90
44817;DHT22;30529;53.570;9.964;2023-02-28T04:11:39;2.40;99.90
44817;DHT22;30529;53.570;9.964;2023-02-28T04:14:07;2.40;99.90
44817;DHT22;30529;53.570;9.964;2023-02-28T04:16:35;2.30;99.90
44817;DHT22;30529;53.570;9.964;2023-02-28T04:19:05;2.30;99.90
44817;DHT22;30529;53.570;9.964;2023-02-28T04:21:34;2.30;99.90
44817;DHT22;30529;53.570;9.964;2023-02-28T04:24:01;2.30;99.90
44817;DHT22;30529;53.570;9.964;2023-02-28T04:26:31;2.30;99.90
44817;DHT22;30529;53.570;9.964;2023-02-28T04:28:58;2.30;99.90
44817;DHT22;30529;53.570;9.964;2023-02-28T04:31:24;2.30;99.90
44817;DHT22;30529;53.570;9.964;2023-02-28T04:33:50;2.20;99.90
44817;DHT22;30529;53.570;9.964;2023-02-28T04:36:16;2.20;99.90
44817;DHT22;30529;53.570;9.964;2023-02-28T04:38:44;2.20;99.90
44817;DHT22;30529;53.570;9.964;2023-02-28T04:41:14;2.20;99.90
44817;DHT22;30529;53.570;9.964;2023-02-28T04:43:40;2.10;99.90
44817;DHT22;30529;53.570;9.964;2023-02-28T04:46:07;2.10;99.90
44817;DHT22;30529;53.570;9.964;2023-02-28T04:48:35;2.00;99.90
44817;DHT22;30529;53.570;9.964;2023-02-28T04:53:29;2.00;99.90
44817;DHT22;30529;53.570;9.964;2023-02-28T04:55:56;2.00;99.90
44817;DHT22;30529;53.570;9.964;2023-02-28T04:58:22;2.00;99.90
44817;DHT22;30529;53.570;9.964;2023-02-28T05:00:50;2.00;99.90
44817;DHT22;30529;53.570;9.964;2023-02-28T05:03:16;1.90;99.90
44817;DHT22;30529;53.570;9.964;2023-02-28T05:05:42;1.90;99.90
44817;DHT22;30529;53.570;9.964;2023-02-28T05:08:08;1.90;99.90
44817;DHT22;30529;53.570;9.964;2023-02-28T05:10:35;1.90;99.90
44817;DHT22;30529;53.570;9.964;2023-02-28T05:13:01;1.90;99.90
44817;DHT22;30529;53.570;9.964;2023-02-28T05:15:28;1.90;99.90
44817;DHT22;30529;53.570;9.964;2023-02-28T05:17:54;1.90;99.90
44817;DHT22;30529;53.570;9.964;2023-02-28T05:20:20;1.90;99.90
44817;DHT22;30529;53.570;9.964;2023-02-28T05:22:46;1.90;99.90
44817;DHT22;30529;53.570;9.964;2023-02-28T05:25:18;1.90;99.90
44817;DHT22;30529;53.570;9.964;2023-02-28T05:27:45;1.90;99.90
44817;DHT22;30529;53.570;9.964;2023-02-28T05:30:11;1.90;99.90
44817;DHT22;30529;53.570;9.964;2023-02-28T05:32:39;1.90;99.90
44817;DHT22;30529;53.570;9.964;2023-02-28T05:35:10;1.90;99.90
44817;DHT22;30529;53.570;9.964;2023-02-28T05:37:37;1.80;99.90
44817;DHT22;30529;53.570;9.964;2023-02-28T05:40:04;1.80;99.90
44817;DHT22;30529;53.570;9.964;2023-02-28T05:42:37;1.80;99.90
44817;DHT22;30529;53.570;9.964;2023-02-28T05:45:06;1.80;99.90
44817;DHT22;30529;53.570;9.964;2023-02-28T05:47:33;1.70;99.90
44817;DHT22;30529;53.570;9.964;2023-02-28T05:49:59;1.70;99.90
44817;DHT22;30529;53.570;9.964;2023-02-28T05:52:25;1.70;99.90
44817;DHT22;30529;53.570;9.964;2023-02-28T05:54:52;1.70;99.90
44817;DHT22;30529;53.570;9.964;2023-02-28T05:57:18;1.70;99.90
44817;DHT22;30529;53.570;9.964;2023-02-28T05:59:43;1.70;99.90
44817;DHT22;30529;53.570;9.964;2023-02-28T06:02:14;1.70;99.90
44817;DHT22;30529;53.570;9.964;2023-02-28T06:04:41;1.60;99.90
44817;DHT22;30529;53.570;9.964;2023-02-28T06:07:08;1.60;99.90
44817;DHT22;30529;53.570;9.964;2023-02-28T06:09:35;1.60;99.90
44817;DHT22;30529;53.570;9.964;2023-02-28T06:12:05;1.60;99.90
44817;DHT22;30529;53.570;9.964;2023-02-28T06:14:36;1.60;99.90
44817;DHT22;30529;53.570;9.964;2023-02-28T06:17:03;1.60;99.90
44817;DHT22;30529;53.570;9.964;2023-02-28T06:19:29;1.60;99.90
44817;DHT22;30529;53.570;9.964;2023-02-28T06:21:59;1.60;99.90
44817;DHT22;30529;53.570;9.964;2023-02-28T06:24:26;1.60;99.90
44817;DHT22;30529;53.570;9.964;2023-02-28T06:26:53;1.60;99.90
44817;DHT22;30529;53.570;9.964;2023-02-28T06:29:19;1.60;99.90
44817;DHT22;30529;53.570;9.964;2023-02-28T06:31:48;1.60;99.90
44817;DHT22;30529;53.570;9.964;2023-02-28T06:34:15;1.60;99.90
44817;DHT22;30529;53.570;9.964;2023-02-28T06:36:41;1.70;99.90
44817;DHT22;30529;53.570;9.964;2023-02-28T06:39:08;1.70;99.90
44817;DHT22;30529;53.570;9.964;2023-02-28T06:41:35;1.70;99.90
44817;DHT22;30529;53.570;9.964;2023-02-28T06:44:11;1.70;99.90
44817;DHT22;30529;53.570;9.964;2023-02-28T06:46:42;1.70;99.90
44817;DHT22;30529;53.570;9.964;2023-02-28T06:49:09;1.70;99.90
44817;DHT22;30529;53.570;9.964;2023-02-28T06:51:37;1.80;99.90
44817;DHT22;30529;53.570;9.964;2023-02-28T06:54:04;1.80;99.90
44817;DHT22;30529;53.570;9.964;2023-02-28T06:56:30;1.80;99.90
44817;DHT22;30529;53.570;9.964;2023-02-28T06:58:56;1.80;99.90
44817;DHT22;30529;53.570;9.964;2023-02-28T07:01:23;1.80;99.90
44817;DHT22;30529;53.570;9.964;2023-02-28T07:03:50;1.80;99.90
44817;DHT22;30529;53.570;9.964;2023-02-28T07:06:22;1.90;99.90
44817;DHT22;30529;53.570;9.964;2023-02-28T07:08:49;1.90;99.90
44817;DHT22;30529;53.570;9.964;2023-02-28T07:11:15;2.00;99.90
44817;DHT22;30529;53.570;9.964;2023-02-28T07:13:41;2.00;99.90
44817;DHT22;30529;53.570;9.964;2023-02-28T07:16:10;2.10;99.90
44817;DHT22;30529;53.570;9.964;2023-02-28T07:18:37;2.10;99.90
44817;DHT22;30529;53.570;9.964;2023-02-28T07:21:04;2.10;99.90
44817;DHT22;30529;53.570;9.964;2023-02-28T07:23:31;2.20;99.90
44817;DHT22;30529;53.570;9.964;2023-02-28T07:25:57;2.20;99.90
44817;DHT22;30529;53.570;9.964;2023-02-28T07:28:23;2.20;99.90
44817;DHT22;30529;53.570;9.964;2023-02-28T07:30:49;2.30;99.90
44817;DHT22;30529;53.570;9.964;2023-02-28T07:33:16;2.30;99.90
44817;DHT22;30529;53.570;9.964;2023-02-28T07:35:41;2.30;99.90
44817;DHT22;30529;53.570;9.964;2023-02-28T07:38:08;2.30;99.90
44817;DHT22;30529;53.570;9.964;2023-02-28T07:40:34;2.30;99.90
44817;DHT22;30529;53.570;9.964;2023-02-28T07:43:01;2.40;99.90
44817;DHT22;30529;53.570;9.964;2023-02-28T07:45:27;2.50;99.90
44817;DHT22;30529;53.570;9.964;2023-02-28T07:47:54;2.50;99.90
44817;DHT22;30529;53.570;9.964;2023-02-28T07:50:21;2.60;99.90
44817;DHT22;30529;53.570;9.964;2023-02-28T07:52:47;2.60;99.90
44817;DHT22;30529;53.570;9.964;2023-02-28T07:55:13;2.60;99.90
44817;DHT22;30529;53.570;9.964;2023-02-28T07:57:40;2.60;99.90
44817;DHT22;30529;53.570;9.964;2023-02-28T08:00:08;2.60;99.90
44817;DHT22;30529;53.570;9.964;2023-02-28T08:02:38;2.70;99.90
44817;DHT22;30529;53.570;9.964;2023-02-28T08:05:05;2.70;99.90
44817;DHT22;30529;53.570;9.964;2023-02-28T08:07:31;2.80;99.90
44817;DHT22;30529;53.570;9.964;2023-02-28T08:09:59;2.80;99.90
44817;DHT22;30529;53.570;9.964;2023-02-28T08:12:25;2.80;99.90
44817;DHT22;30529;53.570;9.964;2023-02-28T08:14:51;2.90;99.90
44817;DHT22;30529;53.570;9.964;2023-02-28T08:17:17;2.90;99.90
44817;DHT22;30529;53.570;9.964;2023-02-28T08:19:46;3.00;99.90
44817;DHT22;30529;53.570;9.964;2023-02-28T08:22:13;3.00;99.90
44817;DHT22;30529;53.570;9.964;2023-02-28T08:24:41;3.00;99.90
44817;DHT22;30529;53.570;9.964;2023-02-28T08:27:08;3.10;99.90
44817;DHT22;30529;53.570;9.964;2023-02-28T08:29:37;3.10;99.90
44817;DHT22;30529;53.570;9.964;2023-02-28T08:32:04;3.20;99.90
44817;DHT22;30529;53.570;9.964;2023-02-28T08:34:30;3.20;99.90
44817;DHT22;30529;53.570;9.964;2023-02-28T08:36:56;3.20;99.90
44817;DHT22;30529;53.570;9.964;2023-02-28T08:39:22;3.30;99.90
44817;DHT22;30529;53.570;9.964;2023-02-28T08:41:48;3.30;99.90
44817;DHT22;30529;53.570;9.964;2023-02-28T08:44:14;3.40;99.90
44817;DHT22;30529;53.570;9.964;2023-02-28T08:46:40;3.40;99.90
44817;DHT22;30529;53.570;9.964;2023-02-28T08:49:06;3.50;99.90
44817;DHT22;30529;53.570;9.964;2023-02-28T08:51:32;3.50;99.90
44817;DHT22;30529;53.570;9.964;2023-02-28T08:54:01;3.60;99.90
44817;DHT22;30529;53.570;9.964;2023-02-28T08:56:27;3.60;99.90
44817;DHT22;30529;53.570;9.964;2023-02-28T08:58:55;3.70;99.90
44817;DHT22;30529;53.570;9.964;2023-02-28T09:01:27;3.70;99.90
44817;DHT22;30529;53.570;9.964;2023-02-28T09:03:54;3.70;99.90
44817;DHT22;30529;53.570;9.964;2023-02-28T09:06:21;3.80;99.90
44817;DHT22;30529;53.570;9.964;2023-02-28T09:08:48;3.70;99.90
44817;DHT22;30529;53.570;9.964;2023-02-28T09:11:14;3.80;99.90
44817;DHT22;30529;53.570;9.964;2023-02-28T09:13:40;3.80;99.90
44817;DHT22;30529;53.570;9.964;2023-02-28T09:16:10;3.90;99.90
44817;DHT22;30529;53.570;9.964;2023-02-28T09:18:37;3.90;99.90
44817;DHT22;30529;53.570;9.964;2023-02-28T09:21:04;3.90;99.90
44817;DHT22;30529;53.570;9.964;2023-02-28T09:23:31;4.00;99.90
44817;DHT22;30529;53.570;9.964;2023-02-28T09:25:56;4.00;99.90
44817;DHT22;30529;53.570;9.964;2023-02-28T09:28:23;4.00;99.90
44817;DHT22;30529;53.570;9.964;2023-02-28T09:30:51;4.00;99.90
44817;DHT22;30529;53.570;9.964;2023-02-28T09:33:18;4.10;99.90
44817;DHT22;30529;53.570;9.964;2023-02-28T09:35:47;4.10;99.90
44817;DHT22;30529;53.570;9.964;2023-02-28T09:38:13;4.10;99.90
44817;DHT22;30529;53.570;9.964;2023-02-28T09:40:49;4.20;99.90
44817;DHT22;30529;53.570;9.964;2023-02-28T09:43:16;4.20;99.90
44817;DHT22;30529;53.570;9.964;2023-02-28T09:45:50;4.20;99.90
44817;DHT22;30529;53.570;9.964;2023-02-28T09:48:24;4.20;99.90
44817;DHT22;30529;53.570;9.964;2023-02-28T09:51:05;4.20;99.90
44817;DHT22;30529;53.570;9.964;2023-02-28T09:53:38;4.20;99.90
44817;DHT22;30529;53.570;9.964;2023-02-28T09:56:21;4.20;99.90
44817;DHT22;30529;53.570;9.964;2023-02-28T09:59:00;4.30;99.90
44817;DHT22;30529;53.570;9.964;2023-02-28T10:04:03;4.40;99.90
44817;DHT22;30529;53.570;9.964;2023-02-28T10:06:39;4.40;99.90
44817;DHT22;30529;53.570;9.964;2023-02-28T10:09:11;4.40;99.90
44817;DHT22;30529;53.570;9.964;2023-02-28T10:11:40;4.40;99.90
44817;DHT22;30529;53.570;9.964;2023-02-28T10:14:20;4.40;99.90
44817;DHT22;30529;53.570;9.964;2023-02-28T10:16:51;4.40;99.90
44817;DHT22;30529;53.570;9.964;2023-02-28T10:19:33;4.50;99.90
44817;DHT22;30529;53.570;9.964;2023-02-28T10:22:20;4.50;99.90
44817;DHT22;30529;53.570;9.964;2023-02-28T10:24:53;4.50;99.90
44817;DHT22;30529;53.570;9.964;2023-02-28T10:27:32;4.60;99.90
44817;DHT22;30529;53.570;9.964;2023-02-28T10:30:00;4.60;99.90
44817;DHT22;30529;53.570;9.964;2023-02-28T10:32:30;4.70;99.90
44817;DHT22;30529;53.570;9.964;2023-02-28T10:35:01;4.70;99.90
44817;DHT22;30529;53.570;9.964;2023-02-28T10:37:33;4.70;99.90
44817;DHT22;30529;53.570;9.964;2023-02-28T10:40:13;4.70;99.90
44817;DHT22;30529;53.570;9.964;2023-02-28T10:42:56;4.80;99.90
44817;DHT22;30529;53.570;9.964;2023-02-28T10:45:22;4.80;99.90
44817;DHT22;30529;53.570;9.964;2023-02-28T10:48:02;4.80;99.90
44817;DHT22;30529;53.570;9.964;2023-02-28T10:50:51;4.80;99.90
44817;DHT22;30529;53.570;9.964;2023-02-28T10:56:02;4.80;99.90
44817;DHT22;30529;53.570;9.964;2023-02-28T11:01:17;4.90;99.90
44817;DHT22;30529;53.570;9.964;2023-02-28T11:03:44;4.90;99.90
44817;DHT22;30529;53.570;9.964;2023-02-28T11:06:22;4.90;99.90
44817;DHT22;30529;53.570;9.964;2023-02-28T11:08:55;5.00;99.90
44817;DHT22;30529;53.570;9.964;2023-02-28T11:11:25;5.10;99.90
44817;DHT22;30529;53.570;9.964;2023-02-28T11:13:53;5.00;99.90
44817;DHT22;30529;53.570;9.964;2023-02-28T11:16:20;5.00;99.90
44817;DHT22;30529;53.570;9.964;2023-02-28T11:18:53;5.00;99.90
44817;DHT22;30529;53.570;9.964;2023-02-28T11:21:32;5.00;99.90
44817;DHT22;30529;53.570;9.964;2023-02-28T11:24:21;5.00;99.90
44817;DHT22;30529;53.570;9.964;2023-02-28T11:26:49;5.00;99.90
44817;DHT22;30529;53.570;9.964;2023-02-28T11:29:26;5.10;99.90
44817;DHT22;30529;53.570;9.964;2023-02-28T11:34:38;5.10;99.90
44817;DHT22;30529;53.570;9.964;2023-02-28T11:37:09;5.10;99.90
44817;DHT22;30529;53.570;9.964;2023-02-28T11:39:36;5.10;99.90
44817;DHT22;30529;53.570;9.964;2023-02-28T11:42:18;5.10;99.90
44817;DHT22;30529;53.570;9.964;2023-02-28T11:45:00;5.10;99.90
44817;DHT22;30529;53.570;9.964;2023-02-28T11:47:32;5.10;99.90
44817;DHT22;30529;53.570;9.964;2023-02-28T11:58:38;5.30;99.90
44817;DHT22;30529;53.570;9.964;2023-02-28T12:04:09;5.30;99.90
44817;DHT22;30529;53.570;9.964;2023-02-28T12:07:06;5.40;99.90
44817;DHT22;30529;53.570;9.964;2023-02-28T12:12:23;5.60;99.90
44817;DHT22;30529;53.570;9.964;2023-02-28T12:14:59;5.60;99.90
44817;DHT22;30529;53.570;9.964;2023-02-28T12:20:32;5.50;99.90
44817;DHT22;30529;53.570;9.964;2023-02-28T12:28:23;5.50;99.90
44817;DHT22;30529;53.570;9.964;2023-02-28T12:30:54;5.60;99.90
44817;DHT22;30529;53.570;9.964;2023-02-28T12:33:24;5.60;99.90
44817;DHT22;30529;53.570;9.964;2023-02-28T12:35:59;5.60;99.90
44817;DHT22;30529;53.570;9.964;2023-02-28T12:38:33;5.60;99.90
44817;DHT22;30529;53.570;9.964;2023-02-28T12:41:05;5.60;99.90
44817;DHT22;30529;53.570;9.964;2023-02-28T12:43:37;5.60;99.90
44817;DHT22;30529;53.570;9.964;2023-02-28T12:46:11;5.50;99.90
44817;DHT22;30529;53.570;9.964;2023-02-28T12:48:46;5.50;99.90
44817;DHT22;30529;53.570;9.964;2023-02-28T12:51:14;5.60;99.90
44817;DHT22;30529;53.570;9.964;2023-02-28T12:53:53;5.60;99.90
44817;DHT22;30529;53.570;9.964;2023-02-28T12:56:32;5.60;99.90
44817;DHT22;30529;53.570;9.964;2023-02-28T12:59:23;5.70;99.90
44817;DHT22;30529;53.570;9.964;2023-02-28T13:04:36;5.60;99.90
44817;DHT22;30529;53.570;9.964;2023-02-28T13:07:20;5.60;99.90
44817;DHT22;30529;53.570;9.964;2023-02-28T13:09:55;5.60;99.90
44817;DHT22;30529;53.570;9.964;2023-02-28T13:12:22;5.60;99.90
44817;DHT22;30529;53.570;9.964;2023-02-28T13:14:49;5.70;99.90
44817;DHT22;30529;53.570;9.964;2023-02-28T13:17:23;5.70;99.90
44817;DHT22;30529;53.570;9.964;2023-02-28T13:22:43;5.80;99.90
44817;DHT22;30529;53.570;9.964;2023-02-28T13:27:53;5.80;99.90
44817;DHT22;30529;53.570;9.964;2023-02-28T13:33:25;5.80;99.90
44817;DHT22;30529;53.570;9.964;2023-02-28T13:49:20;5.90;99.90
44817;DHT22;30529;53.570;9.964;2023-02-28T13:57:58;6.00;99.90
44817;DHT22;30529;53.570;9.964;2023-02-28T14:00:39;6.10;99.90
44817;DHT22;30529;53.570;9.964;2023-02-28T14:06:31;6.10;99.90
44817;DHT22;30529;53.570;9.964;2023-02-28T14:09:03;6.20;99.90
44817;DHT22;30529;53.570;9.964;2023-02-28T14:11:43;6.20;99.90
44817;DHT22;30529;53.570;9.964;2023-02-28T14:17:03;6.20;99.90
44817;DHT22;30529;53.570;9.964;2023-02-28T14:19:31;6.20;99.90
44817;DHT22;30529;53.570;9.964;2023-02-28T14:27:46;6.20;99.90
44817;DHT22;30529;53.570;9.964;2023-02-28T14:38:07;6.20;99.90
44817;DHT22;30529;53.570;9.964;2023-02-28T14:40:40;6.20;99.90
44817;DHT22;30529;53.570;9.964;2023-02-28T14:43:20;6.10;99.90
44817;DHT22;30529;53.570;9.964;2023-02-28T14:45:50;6.10;99.90
44817;DHT22;30529;53.570;9.964;2023-02-28T14:48:18;6.10;99.90
44817;DHT22;30529;53.570;9.964;2023-02-28T14:50:51;6.10;99.90
44817;DHT22;30529;53.570;9.964;2023-02-28T14:53:22;6.10;99.90
44817;DHT22;30529;53.570;9.964;2023-02-28T14:55:49;6.10;99.90
44817;DHT22;30529;53.570;9.964;2023-02-28T14:58:27;6.10;99.90
44817;DHT22;30529;53.570;9.964;2023-02-28T15:00:55;6.10;99.90
44817;DHT22;30529;53.570;9.964;2023-02-28T15:03:34;6.10;99.90
44817;DHT22;30529;53.570;9.964;2023-02-28T15:06:02;6.20;99.90
44817;DHT22;30529;53.570;9.964;2023-02-28T15:08:30;6.20;99.90
44817;DHT22;30529;53.570;9.964;2023-02-28T15:11:11;6.20;99.90
44817;DHT22;30529;53.570;9.964;2023-02-28T15:13:42;6.10;99.90
44817;DHT22;30529;53.570;9.964;2023-02-28T15:16:34;6.10;99.90
44817;DHT22;30529;53.570;9.964;2023-02-28T15:19:04;6.10;99.90
44817;DHT22;30529;53.570;9.964;2023-02-28T15:21:37;6.10;99.90
44817;DHT22;30529;53.570;9.964;2023-02-28T15:24:08;6.10;99.90
44817;DHT22;30529;53.570;9.964;2023-02-28T15:26:39;6.10;99.90
44817;DHT22;30529;53.570;9.964;2023-02-28T15:29:21;6.10;99.90
44817;DHT22;30529;53.570;9.964;2023-02-28T15:31:56;6.10;99.90
44817;DHT22;30529;53.570;9.964;2023-02-28T15:34:35;6.10;99.90
44817;DHT22;30529;53.570;9.964;2023-02-28T15:37:02;6.10;99.90
44817;DHT22;30529;53.570;9.964;2023-02-28T15:39:42;6.10;99.90
44817;DHT22;30529;53.570;9.964;2023-02-28T15:42:18;6.00;99.90
44817;DHT22;30529;53.570;9.964;2023-02-28T15:44:44;6.00;99.90
44817;DHT22;30529;53.570;9.964;2023-02-28T15:47:20;5.90;99.90
44817;DHT22;30529;53.570;9.964;2023-02-28T15:49:53;5.90;99.90
44817;DHT22;30529;53.570;9.964;2023-02-28T15:52:40;5.90;99.90
44817;DHT22;30529;53.570;9.964;2023-02-28T15:55:26;5.90;99.90
44817;DHT22;30529;53.570;9.964;2023-02-28T15:57:57;5.80;99.90
44817;DHT22;30529;53.570;9.964;2023-02-28T16:00:29;5.90;99.90
44817;DHT22;30529;53.570;9.964;2023-02-28T16:02:57;5.80;99.90
44817;DHT22;30529;53.570;9.964;2023-02-28T16:05:28;5.80;99.90
44817;DHT22;30529;53.570;9.964;2023-02-28T16:07:57;5.70;99.90
44817;DHT22;30529;53.570;9.964;2023-02-28T16:10:26;5.80;99.90
44817;DHT22;30529;53.570;9.964;2023-02-28T16:12:56;5.80;99.90
44817;DHT22;30529;53.570;9.964;2023-02-28T16:15:26;5.70;99.90
44817;DHT22;30529;53.570;9.964;2023-02-28T16:17:53;5.70;99.90
44817;DHT22;30529;53.570;9.964;2023-02-28T16:20:25;5.70;99.90
44817;DHT22;30529;53.570;9.964;2023-02-28T16:22:52;5.60;99.90
44817;DHT22;30529;53.570;9.964;2023-02-28T16:25:22;5.60;99.90
44817;DHT22;30529;53.570;9.964;2023-02-28T16:27:50;5.50;99.90
44817;DHT22;30529;53.570;9.964;2023-02-28T16:30:26;5.60;99.90
44817;DHT22;30529;53.570;9.964;2023-02-28T16:32:55;5.50;99.90
44817;DHT22;30529;53.570;9.964;2023-02-28T16:35:22;5.50;99.90
44817;DHT22;30529;53.570;9.964;2023-02-28T16:37:52;5.50;99.90
44817;DHT22;30529;53.570;9.964;2023-02-28T16:40:21;5.40;99.90
44817;DHT22;30529;53.570;9.964;2023-02-28T16:42:49;5.40;99.90
44817;DHT22;30529;53.570;9.964;2023-02-28T16:45:19;5.30;99.90
44817;DHT22;30529;53.570;9.964;2023-02-28T16:47:46;5.20;99.90
44817;DHT22;30529;53.570;9.964;2023-02-28T16:50:17;5.20;99.90
44817;DHT22;30529;53.570;9.964;2023-02-28T16:52:44;5.20;99.90
44817;DHT22;30529;53.570;9.964;2023-02-28T16:55:10;5.10;99.90
44817;DHT22;30529;53.570;9.964;2023-02-28T16:57:37;5.10;99.90
44817;DHT22;30529;53.570;9.964;2023-02-28T17:00:04;5.10;99.90
44817;DHT22;30529;53.570;9.964;2023-02-28T17:02:31;5.00;99.90
44817;DHT22;30529;53.570;9.964;2023-02-28T17:04:57;4.90;99.90
44817;DHT22;30529;53.570;9.964;2023-02-28T17:07:23;4.90;99.90
44817;DHT22;30529;53.570;9.964;2023-02-28T17:09:49;4.80;99.90
44817;DHT22;30529;53.570;9.964;2023-02-28T17:12:15;4.80;99.90
44817;DHT22;30529;53.570;9.964;2023-02-28T17:14:41;4.70;99.90
44817;DHT22;30529;53.570;9.964;2023-02-28T17:17:09;4.70;99.90
44817;DHT22;30529;53.570;9.964;2023-02-28T17:19:35;4.70;99.90
44817;DHT22;30529;53.570;9.964;2023-02-28T17:22:02;4.60;99.90
44817;DHT22;30529;53.570;9.964;2023-02-28T17:24:31;4.60;99.90
44817;DHT22;30529;53.570;9.964;2023-02-28T17:26:57;4.60;99.90
44817;DHT22;30529;53.570;9.964;2023-02-28T17:29:23;4.50;99.90
44817;DHT22;30529;53.570;9.964;2023-02-28T17:31:50;4.50;99.90
44817;DHT22;30529;53.570;9.964;2023-02-28T17:34:16;4.50;99.90
44817;DHT22;30529;53.570;9.964;2023-02-28T17:36:45;4.40;99.90
44817;DHT22;30529;53.570;9.964;2023-02-28T17:39:13;4.40;99.90
44817;DHT22;30529;53.570;9.964;2023-02-28T17:41:41;4.40;99.90
44817;DHT22;30529;53.570;9.964;2023-02-28T17:44:08;4.40;99.90
44817;DHT22;30529;53.570;9.964;2023-02-28T17:46:34;4.40;99.90
44817;DHT22;30529;53.570;9.964;2023-02-28T17:49:01;4.30;99.90
44817;DHT22;30529;53.570;9.964;2023-02-28T17:51:27;4.30;99.90
44817;DHT22;30529;53.570;9.964;2023-02-28T17:53:53;4.30;99.90
44817;DHT22;30529;53.570;9.964;2023-02-28T17:56:22;4.30;99.90